Lena, Indiana
Current Conditions -  °F | °C
As of 10:05 AM on Friday 31 Oct 2014 (Local Time) from KHUF Reporting Station
Light Rain Light Rain  
Wind Chill: 34°   Ceiling: 2400
Heat Index: 41°   Visibility: 7mi
Dew Point: 36°   Wind: 13mph
Humidity: 82%   Direction: 340°NNW
Pressure: 30.08"   Gusts: 22mph
Location:  39.5158°N, 87.1262°W
Report Text: KHUF 311405Z 34011G19KT 7SM -RA SCT018 BKN024 OVC038 05/02 A3008 RMK AO2 RAB04 P0000 T00500022
Loading
Personal Weather Stations






























Interactive Weather Map
Tropical Storm Tracking
New forecast layout! Learn more

10-Day Weather Forecast

Advertisements
Track Severe Weather on mobile